sensor_id;sensor_type;location;lat;lon;timestamp;temperature;humidity
20380;DHT22;10349;48.666;8.948;2024-03-17T00:01:40;6.30;99.90
20380;DHT22;10349;48.666;8.948;2024-03-17T00:04:07;6.20;99.90
20380;DHT22;10349;48.666;8.948;2024-03-17T00:06:32;6.10;99.90
20380;DHT22;10349;48.666;8.948;2024-03-17T00:08:58;6.00;99.90
20380;DHT22;10349;48.666;8.948;2024-03-17T00:11:24;6.00;99.90
20380;DHT22;10349;48.666;8.948;2024-03-17T00:13:50;5.90;99.90
20380;DHT22;10349;48.666;8.948;2024-03-17T00:16:16;5.90;99.90
20380;DHT22;10349;48.666;8.948;2024-03-17T00:18:45;5.90;99.90
20380;DHT22;10349;48.666;8.948;2024-03-17T00:21:12;5.80;99.90
20380;DHT22;10349;48.666;8.948;2024-03-17T00:23:38;5.80;99.90
20380;DHT22;10349;48.666;8.948;2024-03-17T00:26:05;5.80;99.90
20380;DHT22;10349;48.666;8.948;2024-03-17T00:28:31;5.80;99.90
20380;DHT22;10349;48.666;8.948;2024-03-17T00:30:56;5.90;99.90
20380;DHT22;10349;48.666;8.948;2024-03-17T00:33:22;5.90;99.90
20380;DHT22;10349;48.666;8.948;2024-03-17T00:35:48;5.90;99.90
20380;DHT22;10349;48.666;8.948;2024-03-17T00:38:13;5.90;99.90
20380;DHT22;10349;48.666;8.948;2024-03-17T00:40:39;5.80;99.90
20380;DHT22;10349;48.666;8.948;2024-03-17T00:43:10;5.80;99.90
20380;DHT22;10349;48.666;8.948;2024-03-17T00:45:37;5.80;99.90
20380;DHT22;10349;48.666;8.948;2024-03-17T00:48:03;5.80;99.90
20380;DHT22;10349;48.666;8.948;2024-03-17T00:50:29;5.80;99.90
20380;DHT22;10349;48.666;8.948;2024-03-17T00:52:55;5.90;99.90
20380;DHT22;10349;48.666;8.948;2024-03-17T00:55:21;5.80;99.90
20380;DHT22;10349;48.666;8.948;2024-03-17T00:57:47;5.80;99.90
20380;DHT22;10349;48.666;8.948;2024-03-17T01:00:13;5.70;99.90
20380;DHT22;10349;48.666;8.948;2024-03-17T01:02:40;5.60;99.90
20380;DHT22;10349;48.666;8.948;2024-03-17T01:05:06;5.50;99.90
20380;DHT22;10349;48.666;8.948;2024-03-17T01:07:32;5.40;99.90
20380;DHT22;10349;48.666;8.948;2024-03-17T01:09:58;5.40;99.90
20380;DHT22;10349;48.666;8.948;2024-03-17T01:12:24;5.30;99.90
20380;DHT22;10349;48.666;8.948;2024-03-17T01:14:50;5.30;99.90
20380;DHT22;10349;48.666;8.948;2024-03-17T01:17:16;5.20;99.90
20380;DHT22;10349;48.666;8.948;2024-03-17T01:19:43;5.20;99.90
20380;DHT22;10349;48.666;8.948;2024-03-17T01:22:08;5.20;99.90
20380;DHT22;10349;48.666;8.948;2024-03-17T01:24:34;5.20;99.90
20380;DHT22;10349;48.666;8.948;2024-03-17T01:27:00;5.20;99.90
20380;DHT22;10349;48.666;8.948;2024-03-17T01:29:27;5.20;99.90
20380;DHT22;10349;48.666;8.948;2024-03-17T01:31:53;5.20;99.90
20380;DHT22;10349;48.666;8.948;2024-03-17T01:34:19;5.20;99.90
20380;DHT22;10349;48.666;8.948;2024-03-17T01:36:44;5.20;99.90
20380;DHT22;10349;48.666;8.948;2024-03-17T01:39:10;5.20;99.90
20380;DHT22;10349;48.666;8.948;2024-03-17T01:41:37;5.10;99.90
20380;DHT22;10349;48.666;8.948;2024-03-17T01:44:03;5.20;99.90
20380;DHT22;10349;48.666;8.948;2024-03-17T01:46:29;5.20;99.90
20380;DHT22;10349;48.666;8.948;2024-03-17T01:48:54;5.20;99.90
20380;DHT22;10349;48.666;8.948;2024-03-17T01:51:21;5.10;99.90
20380;DHT22;10349;48.666;8.948;2024-03-17T01:53:48;5.10;99.90
20380;DHT22;10349;48.666;8.948;2024-03-17T01:56:15;5.10;99.90
20380;DHT22;10349;48.666;8.948;2024-03-17T01:58:44;5.10;99.90
20380;DHT22;10349;48.666;8.948;2024-03-17T02:01:10;5.10;99.90
20380;DHT22;10349;48.666;8.948;2024-03-17T02:03:36;5.20;99.90
20380;DHT22;10349;48.666;8.948;2024-03-17T02:06:02;5.20;99.90
20380;DHT22;10349;48.666;8.948;2024-03-17T02:08:27;5.20;99.90
20380;DHT22;10349;48.666;8.948;2024-03-17T02:10:54;5.30;99.90
20380;DHT22;10349;48.666;8.948;2024-03-17T02:13:21;5.30;99.90
20380;DHT22;10349;48.666;8.948;2024-03-17T02:15:47;5.30;99.90
20380;DHT22;10349;48.666;8.948;2024-03-17T02:18:13;5.30;99.90
20380;DHT22;10349;48.666;8.948;2024-03-17T02:20:39;5.20;99.90
20380;DHT22;10349;48.666;8.948;2024-03-17T02:23:20;5.20;99.90
20380;DHT22;10349;48.666;8.948;2024-03-17T02:25:46;5.30;99.90
20380;DHT22;10349;48.666;8.948;2024-03-17T02:28:13;5.30;99.90
20380;DHT22;10349;48.666;8.948;2024-03-17T02:30:39;5.30;99.90
20380;DHT22;10349;48.666;8.948;2024-03-17T02:33:04;5.30;99.90
20380;DHT22;10349;48.666;8.948;2024-03-17T02:35:30;5.40;99.90
20380;DHT22;10349;48.666;8.948;2024-03-17T02:37:56;5.40;99.90
20380;DHT22;10349;48.666;8.948;2024-03-17T02:40:22;5.40;99.90
20380;DHT22;10349;48.666;8.948;2024-03-17T02:42:48;5.40;99.90
20380;DHT22;10349;48.666;8.948;2024-03-17T02:45:13;5.40;99.90
20380;DHT22;10349;48.666;8.948;2024-03-17T02:47:39;5.40;99.90
20380;DHT22;10349;48.666;8.948;2024-03-17T02:50:06;5.40;99.90
20380;DHT22;10349;48.666;8.948;2024-03-17T02:52:31;5.40;99.90
20380;DHT22;10349;48.666;8.948;2024-03-17T02:54:57;5.30;99.90
20380;DHT22;10349;48.666;8.948;2024-03-17T02:57:24;5.30;99.90
20380;DHT22;10349;48.666;8.948;2024-03-17T02:59:50;5.30;99.90
20380;DHT22;10349;48.666;8.948;2024-03-17T03:02:17;5.30;99.90
20380;DHT22;10349;48.666;8.948;2024-03-17T03:04:43;5.30;99.90
20380;DHT22;10349;48.666;8.948;2024-03-17T03:07:09;5.30;99.90
20380;DHT22;10349;48.666;8.948;2024-03-17T03:09:34;5.30;99.90
20380;DHT22;10349;48.666;8.948;2024-03-17T03:12:00;5.20;99.90
20380;DHT22;10349;48.666;8.948;2024-03-17T03:14:29;5.20;99.90
20380;DHT22;10349;48.666;8.948;2024-03-17T03:16:55;5.20;99.90
20380;DHT22;10349;48.666;8.948;2024-03-17T03:19:20;5.20;99.90
20380;DHT22;10349;48.666;8.948;2024-03-17T03:21:46;5.20;99.90
20380;DHT22;10349;48.666;8.948;2024-03-17T03:24:14;5.30;99.90
20380;DHT22;10349;48.666;8.948;2024-03-17T03:26:39;5.30;99.90
20380;DHT22;10349;48.666;8.948;2024-03-17T03:29:05;5.20;99.90
20380;DHT22;10349;48.666;8.948;2024-03-17T03:31:34;5.30;99.90
20380;DHT22;10349;48.666;8.948;2024-03-17T03:34:00;5.20;99.90
20380;DHT22;10349;48.666;8.948;2024-03-17T03:36:27;5.30;99.90
20380;DHT22;10349;48.666;8.948;2024-03-17T03:38:53;5.30;99.90
20380;DHT22;10349;48.666;8.948;2024-03-17T03:41:19;5.40;99.90
20380;DHT22;10349;48.666;8.948;2024-03-17T03:43:44;5.40;99.90
20380;DHT22;10349;48.666;8.948;2024-03-17T03:46:12;5.50;99.90
20380;DHT22;10349;48.666;8.948;2024-03-17T03:48:37;5.40;99.90
20380;DHT22;10349;48.666;8.948;2024-03-17T03:51:07;5.40;99.90
20380;DHT22;10349;48.666;8.948;2024-03-17T03:53:33;5.40;99.90
20380;DHT22;10349;48.666;8.948;2024-03-17T03:56:00;5.40;99.90
20380;DHT22;10349;48.666;8.948;2024-03-17T03:58:27;5.40;99.90
20380;DHT22;10349;48.666;8.948;2024-03-17T04:00:54;5.40;99.90
20380;DHT22;10349;48.666;8.948;2024-03-17T04:03:21;5.40;99.90
20380;DHT22;10349;48.666;8.948;2024-03-17T04:05:47;5.40;99.90
20380;DHT22;10349;48.666;8.948;2024-03-17T04:08:13;5.40;99.90
20380;DHT22;10349;48.666;8.948;2024-03-17T04:10:39;5.30;99.90
20380;DHT22;10349;48.666;8.948;2024-03-17T04:13:04;5.30;99.90
20380;DHT22;10349;48.666;8.948;2024-03-17T04:15:30;5.30;99.90
20380;DHT22;10349;48.666;8.948;2024-03-17T04:17:56;5.30;99.90
20380;DHT22;10349;48.666;8.948;2024-03-17T04:20:22;5.30;99.90
20380;DHT22;10349;48.666;8.948;2024-03-17T04:22:47;5.30;99.90
20380;DHT22;10349;48.666;8.948;2024-03-17T04:25:13;5.30;99.90
20380;DHT22;10349;48.666;8.948;2024-03-17T04:27:40;5.30;99.90
20380;DHT22;10349;48.666;8.948;2024-03-17T04:30:06;5.30;99.90
20380;DHT22;10349;48.666;8.948;2024-03-17T04:32:33;5.30;99.90
20380;DHT22;10349;48.666;8.948;2024-03-17T04:34:59;5.20;99.90
20380;DHT22;10349;48.666;8.948;2024-03-17T04:37:25;5.20;99.90
20380;DHT22;10349;48.666;8.948;2024-03-17T04:39:50;5.20;99.90
20380;DHT22;10349;48.666;8.948;2024-03-17T04:42:17;5.10;99.90
20380;DHT22;10349;48.666;8.948;2024-03-17T04:44:44;5.00;99.90
20380;DHT22;10349;48.666;8.948;2024-03-17T04:47:10;5.00;99.90
20380;DHT22;10349;48.666;8.948;2024-03-17T04:49:37;5.00;99.90
20380;DHT22;10349;48.666;8.948;2024-03-17T04:52:03;5.00;99.90
20380;DHT22;10349;48.666;8.948;2024-03-17T04:54:31;5.00;99.90
20380;DHT22;10349;48.666;8.948;2024-03-17T04:56:56;5.00;99.90
20380;DHT22;10349;48.666;8.948;2024-03-17T04:59:22;5.10;99.90
20380;DHT22;10349;48.666;8.948;2024-03-17T05:01:48;5.10;99.90
20380;DHT22;10349;48.666;8.948;2024-03-17T05:04:14;5.10;99.90
20380;DHT22;10349;48.666;8.948;2024-03-17T05:06:40;5.00;99.90
20380;DHT22;10349;48.666;8.948;2024-03-17T05:09:08;4.90;99.90
20380;DHT22;10349;48.666;8.948;2024-03-17T05:11:33;5.00;99.90
20380;DHT22;10349;48.666;8.948;2024-03-17T05:14:00;5.00;99.90
20380;DHT22;10349;48.666;8.948;2024-03-17T05:16:26;5.10;99.90
20380;DHT22;10349;48.666;8.948;2024-03-17T05:18:55;5.10;99.90
20380;DHT22;10349;48.666;8.948;2024-03-17T05:21:21;5.10;99.90
20380;DHT22;10349;48.666;8.948;2024-03-17T05:23:47;5.00;99.90
20380;DHT22;10349;48.666;8.948;2024-03-17T05:26:14;5.10;99.90
20380;DHT22;10349;48.666;8.948;2024-03-17T05:28:40;5.00;99.90
20380;DHT22;10349;48.666;8.948;2024-03-17T05:31:05;5.00;99.90
20380;DHT22;10349;48.666;8.948;2024-03-17T05:33:31;4.90;99.90
20380;DHT22;10349;48.666;8.948;2024-03-17T05:35:58;4.90;99.90
20380;DHT22;10349;48.666;8.948;2024-03-17T05:38:26;4.90;99.90
20380;DHT22;10349;48.666;8.948;2024-03-17T05:40:59;4.90;99.90
20380;DHT22;10349;48.666;8.948;2024-03-17T05:43:30;4.90;99.90
20380;DHT22;10349;48.666;8.948;2024-03-17T05:46:04;4.90;99.90
20380;DHT22;10349;48.666;8.948;2024-03-17T05:48:38;4.90;99.90
20380;DHT22;10349;48.666;8.948;2024-03-17T05:51:09;4.80;99.90
20380;DHT22;10349;48.666;8.948;2024-03-17T05:53:35;4.80;99.90
20380;DHT22;10349;48.666;8.948;2024-03-17T05:56:01;4.80;99.90
20380;DHT22;10349;48.666;8.948;2024-03-17T05:58:27;4.80;99.90
20380;DHT22;10349;48.666;8.948;2024-03-17T06:00:53;4.80;99.90
20380;DHT22;10349;48.666;8.948;2024-03-17T06:03:19;4.80;99.90
20380;DHT22;10349;48.666;8.948;2024-03-17T06:05:45;4.80;99.90
20380;DHT22;10349;48.666;8.948;2024-03-17T06:08:13;4.80;99.90
20380;DHT22;10349;48.666;8.948;2024-03-17T06:10:44;4.80;99.90
20380;DHT22;10349;48.666;8.948;2024-03-17T06:13:10;4.90;99.90
20380;DHT22;10349;48.666;8.948;2024-03-17T06:15:39;4.90;99.90
20380;DHT22;10349;48.666;8.948;2024-03-17T06:18:05;4.90;99.90
20380;DHT22;10349;48.666;8.948;2024-03-17T06:20:34;5.00;99.90
20380;DHT22;10349;48.666;8.948;2024-03-17T06:23:00;5.00;99.90
20380;DHT22;10349;48.666;8.948;2024-03-17T06:25:26;5.10;99.90
20380;DHT22;10349;48.666;8.948;2024-03-17T06:27:53;5.10;99.90
20380;DHT22;10349;48.666;8.948;2024-03-17T06:30:19;5.10;99.90
20380;DHT22;10349;48.666;8.948;2024-03-17T06:32:46;5.20;99.90
20380;DHT22;10349;48.666;8.948;2024-03-17T06:35:13;5.30;99.90
20380;DHT22;10349;48.666;8.948;2024-03-17T06:37:44;5.30;99.90
20380;DHT22;10349;48.666;8.948;2024-03-17T06:40:13;5.40;99.90
20380;DHT22;10349;48.666;8.948;2024-03-17T06:42:39;5.40;99.90
20380;DHT22;10349;48.666;8.948;2024-03-17T06:45:05;5.40;99.90
20380;DHT22;10349;48.666;8.948;2024-03-17T06:47:31;5.40;99.90
20380;DHT22;10349;48.666;8.948;2024-03-17T06:49:56;5.60;99.90
20380;DHT22;10349;48.666;8.948;2024-03-17T06:52:22;5.60;99.90
20380;DHT22;10349;48.666;8.948;2024-03-17T06:54:48;5.70;99.90
20380;DHT22;10349;48.666;8.948;2024-03-17T06:57:17;5.70;99.90
20380;DHT22;10349;48.666;8.948;2024-03-17T06:59:42;5.80;99.90
20380;DHT22;10349;48.666;8.948;2024-03-17T07:02:10;5.90;99.90
20380;DHT22;10349;48.666;8.948;2024-03-17T07:04:38;6.00;99.90
20380;DHT22;10349;48.666;8.948;2024-03-17T07:07:03;6.00;99.90
20380;DHT22;10349;48.666;8.948;2024-03-17T07:09:29;6.00;99.90
20380;DHT22;10349;48.666;8.948;2024-03-17T07:11:54;6.10;99.90
20380;DHT22;10349;48.666;8.948;2024-03-17T07:14:20;6.10;99.90
20380;DHT22;10349;48.666;8.948;2024-03-17T07:16:46;6.20;99.90
20380;DHT22;10349;48.666;8.948;2024-03-17T07:19:11;6.30;99.90
20380;DHT22;10349;48.666;8.948;2024-03-17T07:21:37;6.40;99.90
20380;DHT22;10349;48.666;8.948;2024-03-17T07:24:03;6.40;99.90
20380;DHT22;10349;48.666;8.948;2024-03-17T07:26:30;6.40;99.90
20380;DHT22;10349;48.666;8.948;2024-03-17T07:28:56;6.50;99.90
20380;DHT22;10349;48.666;8.948;2024-03-17T07:31:22;6.50;99.90
20380;DHT22;10349;48.666;8.948;2024-03-17T07:33:48;6.60;99.90
20380;DHT22;10349;48.666;8.948;2024-03-17T07:36:14;6.60;99.90
20380;DHT22;10349;48.666;8.948;2024-03-17T07:38:40;6.70;99.90
20380;DHT22;10349;48.666;8.948;2024-03-17T07:41:07;6.80;99.90
20380;DHT22;10349;48.666;8.948;2024-03-17T07:43:37;6.90;99.90
20380;DHT22;10349;48.666;8.948;2024-03-17T07:46:10;7.00;99.90
20380;DHT22;10349;48.666;8.948;2024-03-17T07:48:44;7.10;99.90
20380;DHT22;10349;48.666;8.948;2024-03-17T07:51:14;7.20;99.90
20380;DHT22;10349;48.666;8.948;2024-03-17T07:53:41;7.30;99.90
20380;DHT22;10349;48.666;8.948;2024-03-17T07:56:11;7.30;99.90
20380;DHT22;10349;48.666;8.948;2024-03-17T07:58:38;7.40;99.90
20380;DHT22;10349;48.666;8.948;2024-03-17T08:01:09;7.40;99.90
20380;DHT22;10349;48.666;8.948;2024-03-17T08:03:36;7.50;99.90
20380;DHT22;10349;48.666;8.948;2024-03-17T08:06:04;7.50;99.90
20380;DHT22;10349;48.666;8.948;2024-03-17T08:08:30;7.60;99.90
20380;DHT22;10349;48.666;8.948;2024-03-17T08:10:56;7.70;99.90
20380;DHT22;10349;48.666;8.948;2024-03-17T08:13:22;7.80;99.90
20380;DHT22;10349;48.666;8.948;2024-03-17T08:15:56;7.90;99.90
20380;DHT22;10349;48.666;8.948;2024-03-17T08:18:22;8.00;99.90
20380;DHT22;10349;48.666;8.948;2024-03-17T08:20:47;8.10;99.90
20380;DHT22;10349;48.666;8.948;2024-03-17T08:23:13;8.20;99.90
20380;DHT22;10349;48.666;8.948;2024-03-17T08:25:39;8.20;99.90
20380;DHT22;10349;48.666;8.948;2024-03-17T08:28:05;8.20;99.90
20380;DHT22;10349;48.666;8.948;2024-03-17T08:30:33;8.30;99.90
20380;DHT22;10349;48.666;8.948;2024-03-17T08:32:59;8.30;99.90
20380;DHT22;10349;48.666;8.948;2024-03-17T08:35:25;8.40;99.90
20380;DHT22;10349;48.666;8.948;2024-03-17T08:37:50;8.50;99.90
20380;DHT22;10349;48.666;8.948;2024-03-17T08:40:22;8.60;99.90
20380;DHT22;10349;48.666;8.948;2024-03-17T08:42:50;8.60;99.90
20380;DHT22;10349;48.666;8.948;2024-03-17T08:45:16;8.80;99.90
20380;DHT22;10349;48.666;8.948;2024-03-17T08:47:42;8.90;99.90
20380;DHT22;10349;48.666;8.948;2024-03-17T08:50:08;9.00;99.90
20380;DHT22;10349;48.666;8.948;2024-03-17T08:52:35;9.10;99.90
20380;DHT22;10349;48.666;8.948;2024-03-17T08:55:00;9.20;99.90
20380;DHT22;10349;48.666;8.948;2024-03-17T08:57:29;9.40;99.90
20380;DHT22;10349;48.666;8.948;2024-03-17T08:59:55;9.50;99.90
20380;DHT22;10349;48.666;8.948;2024-03-17T09:02:21;9.50;99.90
20380;DHT22;10349;48.666;8.948;2024-03-17T09:04:47;9.60;99.90
20380;DHT22;10349;48.666;8.948;2024-03-17T09:07:13;9.60;99.90
20380;DHT22;10349;48.666;8.948;2024-03-17T09:09:41;9.70;99.90
20380;DHT22;10349;48.666;8.948;2024-03-17T09:12:08;9.90;99.90
20380;DHT22;10349;48.666;8.948;2024-03-17T09:14:33;10.00;99.90
20380;DHT22;10349;48.666;8.948;2024-03-17T09:16:59;10.10;99.90
20380;DHT22;10349;48.666;8.948;2024-03-17T09:19:25;10.20;99.90
20380;DHT22;10349;48.666;8.948;2024-03-17T09:21:50;10.20;99.90
20380;DHT22;10349;48.666;8.948;2024-03-17T09:24:16;10.20;99.90
20380;DHT22;10349;48.666;8.948;2024-03-17T09:26:41;10.30;99.90
20380;DHT22;10349;48.666;8.948;2024-03-17T09:29:07;10.40;99.90
20380;DHT22;10349;48.666;8.948;2024-03-17T09:31:33;10.50;99.90
20380;DHT22;10349;48.666;8.948;2024-03-17T09:34:03;10.60;99.90
20380;DHT22;10349;48.666;8.948;2024-03-17T09:36:29;10.70;99.90
20380;DHT22;10349;48.666;8.948;2024-03-17T09:38:56;10.70;99.90
20380;DHT22;10349;48.666;8.948;2024-03-17T09:41:24;10.80;99.90
20380;DHT22;10349;48.666;8.948;2024-03-17T09:43:55;10.80;99.90
20380;DHT22;10349;48.666;8.948;2024-03-17T09:46:26;10.80;99.90
20380;DHT22;10349;48.666;8.948;2024-03-17T09:48:53;10.90;99.90
20380;DHT22;10349;48.666;8.948;2024-03-17T09:51:24;10.90;99.90
20380;DHT22;10349;48.666;8.948;2024-03-17T09:53:51;11.00;99.90
20380;DHT22;10349;48.666;8.948;2024-03-17T09:56:21;11.00;99.90
20380;DHT22;10349;48.666;8.948;2024-03-17T09:58:51;11.00;99.90
20380;DHT22;10349;48.666;8.948;2024-03-17T10:01:17;11.10;99.90
20380;DHT22;10349;48.666;8.948;2024-03-17T10:06:14;11.10;99.90
20380;DHT22;10349;48.666;8.948;2024-03-17T10:08:54;11.20;99.90
20380;DHT22;10349;48.666;8.948;2024-03-17T10:11:24;11.30;99.90
20380;DHT22;10349;48.666;8.948;2024-03-17T10:14:04;11.40;99.90
20380;DHT22;10349;48.666;8.948;2024-03-17T10:16:32;11.50;99.90
20380;DHT22;10349;48.666;8.948;2024-03-17T10:19:25;11.60;99.90
20380;DHT22;10349;48.666;8.948;2024-03-17T10:21:58;11.80;99.90
20380;DHT22;10349;48.666;8.948;2024-03-17T10:24:27;11.80;99.90
20380;DHT22;10349;48.666;8.948;2024-03-17T10:27:02;11.80;99.90
20380;DHT22;10349;48.666;8.948;2024-03-17T10:29:30;11.90;99.90
20380;DHT22;10349;48.666;8.948;2024-03-17T10:32:02;11.80;99.90
20380;DHT22;10349;48.666;8.948;2024-03-17T10:34:29;11.90;99.90
20380;DHT22;10349;48.666;8.948;2024-03-17T10:37:20;11.90;99.90
20380;DHT22;10349;48.666;8.948;2024-03-17T10:39:51;12.00;99.90
20380;DHT22;10349;48.666;8.948;2024-03-17T10:42:25;12.00;99.90
20380;DHT22;10349;48.666;8.948;2024-03-17T10:44:53;12.00;99.90
20380;DHT22;10349;48.666;8.948;2024-03-17T10:47:22;12.00;99.90
20380;DHT22;10349;48.666;8.948;2024-03-17T10:49:53;12.00;99.90
20380;DHT22;10349;48.666;8.948;2024-03-17T10:52:19;12.00;99.90
20380;DHT22;10349;48.666;8.948;2024-03-17T10:54:55;12.00;99.90
20380;DHT22;10349;48.666;8.948;2024-03-17T10:59:55;12.10;99.90
20380;DHT22;10349;48.666;8.948;2024-03-17T11:02:23;12.10;99.90
20380;DHT22;10349;48.666;8.948;2024-03-17T11:04:55;12.10;99.90
20380;DHT22;10349;48.666;8.948;2024-03-17T11:07:21;12.10;99.90
20380;DHT22;10349;48.666;8.948;2024-03-17T11:09:48;12.20;99.90
20380;DHT22;10349;48.666;8.948;2024-03-17T11:15:34;12.30;99.90
20380;DHT22;10349;48.666;8.948;2024-03-17T11:20:36;12.30;99.90
20380;DHT22;10349;48.666;8.948;2024-03-17T11:23:05;12.40;99.90
20380;DHT22;10349;48.666;8.948;2024-03-17T11:28:09;12.50;99.90
20380;DHT22;10349;48.666;8.948;2024-03-17T11:38:58;12.70;99.90
20380;DHT22;10349;48.666;8.948;2024-03-17T11:41:42;12.80;99.90
20380;DHT22;10349;48.666;8.948;2024-03-17T11:47:00;13.00;99.90
20380;DHT22;10349;48.666;8.948;2024-03-17T11:49:31;13.10;99.90
20380;DHT22;10349;48.666;8.948;2024-03-17T11:51:58;13.10;99.90
20380;DHT22;10349;48.666;8.948;2024-03-17T11:54:34;13.10;99.90
20380;DHT22;10349;48.666;8.948;2024-03-17T11:57:11;13.00;99.90
20380;DHT22;10349;48.666;8.948;2024-03-17T11:59:37;12.90;99.90
20380;DHT22;10349;48.666;8.948;2024-03-17T12:02:14;12.90;99.90
20380;DHT22;10349;48.666;8.948;2024-03-17T12:04:42;12.90;99.90
20380;DHT22;10349;48.666;8.948;2024-03-17T12:07:18;12.90;99.90
20380;DHT22;10349;48.666;8.948;2024-03-17T12:09:47;13.00;99.90
20380;DHT22;10349;48.666;8.948;2024-03-17T12:12:21;13.10;99.90
20380;DHT22;10349;48.666;8.948;2024-03-17T12:14:48;13.10;99.90
20380;DHT22;10349;48.666;8.948;2024-03-17T12:17:15;13.10;99.90
20380;DHT22;10349;48.666;8.948;2024-03-17T12:19:45;13.10;99.90
20380;DHT22;10349;48.666;8.948;2024-03-17T12:22:22;13.10;99.90
20380;DHT22;10349;48.666;8.948;2024-03-17T12:24:52;13.10;99.90
20380;DHT22;10349;48.666;8.948;2024-03-17T12:27:20;13.10;99.90
20380;DHT22;10349;48.666;8.948;2024-03-17T12:29:48;13.10;99.90
20380;DHT22;10349;48.666;8.948;2024-03-17T12:32:16;13.20;99.90
20380;DHT22;10349;48.666;8.948;2024-03-17T12:34:46;13.20;99.90
20380;DHT22;10349;48.666;8.948;2024-03-17T12:39:47;13.20;99.90
20380;DHT22;10349;48.666;8.948;2024-03-17T12:42:14;13.20;99.90
20380;DHT22;10349;48.666;8.948;2024-03-17T12:44:58;13.30;99.90
20380;DHT22;10349;48.666;8.948;2024-03-17T12:47:25;13.30;99.90
20380;DHT22;10349;48.666;8.948;2024-03-17T12:49:55;13.40;99.90
20380;DHT22;10349;48.666;8.948;2024-03-17T12:52:29;13.40;99.90
20380;DHT22;10349;48.666;8.948;2024-03-17T12:55:03;13.40;99.90
20380;DHT22;10349;48.666;8.948;2024-03-17T12:58:09;13.40;99.90
20380;DHT22;10349;48.666;8.948;2024-03-17T13:01:04;13.40;99.90
20380;DHT22;10349;48.666;8.948;2024-03-17T13:03:37;13.50;99.90
20380;DHT22;10349;48.666;8.948;2024-03-17T13:06:05;13.50;99.90
20380;DHT22;10349;48.666;8.948;2024-03-17T13:08:32;13.60;99.90
20380;DHT22;10349;48.666;8.948;2024-03-17T13:10:59;13.70;99.90
20380;DHT22;10349;48.666;8.948;2024-03-17T13:13:25;13.80;99.90
20380;DHT22;10349;48.666;8.948;2024-03-17T13:15:51;13.80;99.90
20380;DHT22;10349;48.666;8.948;2024-03-17T13:18:18;13.90;99.90
20380;DHT22;10349;48.666;8.948;2024-03-17T13:20:48;13.90;99.90
20380;DHT22;10349;48.666;8.948;2024-03-17T13:23:19;13.90;99.90
20380;DHT22;10349;48.666;8.948;2024-03-17T13:25:47;13.80;99.90
20380;DHT22;10349;48.666;8.948;2024-03-17T13:28:13;13.70;99.90
20380;DHT22;10349;48.666;8.948;2024-03-17T13:30:39;13.70;99.90
20380;DHT22;10349;48.666;8.948;2024-03-17T13:33:05;13.80;99.90
20380;DHT22;10349;48.666;8.948;2024-03-17T13:35:36;13.70;99.90
20380;DHT22;10349;48.666;8.948;2024-03-17T13:38:05;13.80;99.90
20380;DHT22;10349;48.666;8.948;2024-03-17T13:40:33;13.80;99.90
20380;DHT22;10349;48.666;8.948;2024-03-17T13:42:58;13.90;99.90
20380;DHT22;10349;48.666;8.948;2024-03-17T13:45:28;14.00;99.90
20380;DHT22;10349;48.666;8.948;2024-03-17T13:48:02;14.00;99.90
20380;DHT22;10349;48.666;8.948;2024-03-17T13:50:29;14.00;99.90
20380;DHT22;10349;48.666;8.948;2024-03-17T13:52:56;13.90;99.90
20380;DHT22;10349;48.666;8.948;2024-03-17T13:55:22;14.00;99.90
20380;DHT22;10349;48.666;8.948;2024-03-17T13:57:56;14.10;99.90
20380;DHT22;10349;48.666;8.948;2024-03-17T14:00:27;14.20;99.90
20380;DHT22;10349;48.666;8.948;2024-03-17T14:02:54;14.30;99.90
20380;DHT22;10349;48.666;8.948;2024-03-17T14:05:21;14.30;99.90
20380;DHT22;10349;48.666;8.948;2024-03-17T14:07:47;14.40;99.90
20380;DHT22;10349;48.666;8.948;2024-03-17T14:10:16;14.50;99.90
20380;DHT22;10349;48.666;8.948;2024-03-17T14:12:42;14.50;99.90
20380;DHT22;10349;48.666;8.948;2024-03-17T14:15:09;14.40;99.90
20380;DHT22;10349;48.666;8.948;2024-03-17T14:17:45;14.40;99.90
20380;DHT22;10349;48.666;8.948;2024-03-17T14:20:13;14.40;99.90
20380;DHT22;10349;48.666;8.948;2024-03-17T14:22:41;14.40;99.90
20380;DHT22;10349;48.666;8.948;2024-03-17T14:25:08;14.40;99.90
20380;DHT22;10349;48.666;8.948;2024-03-17T14:27:36;14.40;99.90
20380;DHT22;10349;48.666;8.948;2024-03-17T14:30:01;14.30;99.90
20380;DHT22;10349;48.666;8.948;2024-03-17T14:32:30;14.30;99.90
20380;DHT22;10349;48.666;8.948;2024-03-17T14:34:55;14.30;99.90
20380;DHT22;10349;48.666;8.948;2024-03-17T14:37:21;14.30;99.90
20380;DHT22;10349;48.666;8.948;2024-03-17T14:39:48;14.40;99.90
20380;DHT22;10349;48.666;8.948;2024-03-17T14:42:14;14.40;99.90
20380;DHT22;10349;48.666;8.948;2024-03-17T14:44:40;14.40;99.90
20380;DHT22;10349;48.666;8.948;2024-03-17T14:47:06;14.30;99.90
20380;DHT22;10349;48.666;8.948;2024-03-17T14:49:32;14.30;99.90
20380;DHT22;10349;48.666;8.948;2024-03-17T14:51:58;14.50;99.90
20380;DHT22;10349;48.666;8.948;2024-03-17T14:54:24;14.50;99.90
20380;DHT22;10349;48.666;8.948;2024-03-17T14:56:51;14.50;99.90
20380;DHT22;10349;48.666;8.948;2024-03-17T14:59:17;14.40;99.90
20380;DHT22;10349;48.666;8.948;2024-03-17T15:01:45;14.40;99.90
20380;DHT22;10349;48.666;8.948;2024-03-17T15:04:11;14.30;99.90
20380;DHT22;10349;48.666;8.948;2024-03-17T15:06:36;14.30;99.90
20380;DHT22;10349;48.666;8.948;2024-03-17T15:09:02;14.20;99.90
20380;DHT22;10349;48.666;8.948;2024-03-17T15:11:29;14.10;99.90
20380;DHT22;10349;48.666;8.948;2024-03-17T15:13:54;14.10;99.90
20380;DHT22;10349;48.666;8.948;2024-03-17T15:16:20;14.20;99.90
20380;DHT22;10349;48.666;8.948;2024-03-17T15:18:46;14.20;99.90
20380;DHT22;10349;48.666;8.948;2024-03-17T15:21:12;14.20;99.90
20380;DHT22;10349;48.666;8.948;2024-03-17T15:23:38;14.20;99.90
20380;DHT22;10349;48.666;8.948;2024-03-17T15:26:06;14.10;99.90
20380;DHT22;10349;48.666;8.948;2024-03-17T15:28:43;14.00;99.90
20380;DHT22;10349;48.666;8.948;2024-03-17T15:31:10;14.00;99.90
20380;DHT22;10349;48.666;8.948;2024-03-17T15:33:37;14.00;99.90
20380;DHT22;10349;48.666;8.948;2024-03-17T15:36:04;14.00;99.90
20380;DHT22;10349;48.666;8.948;2024-03-17T15:38:31;13.90;99.90
20380;DHT22;10349;48.666;8.948;2024-03-17T15:41:07;13.90;99.90
20380;DHT22;10349;48.666;8.948;2024-03-17T15:43:36;13.90;99.90
20380;DHT22;10349;48.666;8.948;2024-03-17T15:46:08;13.80;99.90
20380;DHT22;10349;48.666;8.948;2024-03-17T15:48:34;13.90;99.90
20380;DHT22;10349;48.666;8.948;2024-03-17T15:51:00;13.80;99.90
20380;DHT22;10349;48.666;8.948;2024-03-17T15:53:27;13.70;99.90
20380;DHT22;10349;48.666;8.948;2024-03-17T15:55:54;13.50;99.90
20380;DHT22;10349;48.666;8.948;2024-03-17T15:58:20;13.50;99.90
20380;DHT22;10349;48.666;8.948;2024-03-17T16:00:46;13.40;99.90
20380;DHT22;10349;48.666;8.948;2024-03-17T16:03:12;13.40;99.90
20380;DHT22;10349;48.666;8.948;2024-03-17T16:05:38;13.30;99.90
20380;DHT22;10349;48.666;8.948;2024-03-17T16:08:07;13.30;99.90
20380;DHT22;10349;48.666;8.948;2024-03-17T16:10:35;13.30;99.90